Riverwoods, Illinois
Current Conditions -  °F | °C
As of 12:52 PM on Thursday 30 Oct 2014 (Local Time) from KPWK Reporting Station
Broken Clouds Broken Clouds  
Wind Chill: 51°   Ceiling: 10000
Heat Index: 51°   Visibility: 10mi
Dew Point: 33°   Wind: 9mph
Humidity: 50%   Direction: 210°SSW
Pressure: 30.11"   Gusts: NA
Location:  42.1724°N, 87.8767°W
Report Text: KPWK 301752Z 21008KT 10SM BKN100 11/01 A3011 RMK AO2 SLP199 T01060006 10106 20011 56013
Loading
Personal Weather Stations






























Interactive Weather Map
Tropical Storm Tracking
New forecast layout! Learn more

10-Day Weather Forecast

Advertisements
Track Severe Weather on mobile